createdAt,value
2023-05-25T00:00:53.473Z,6.18
2023-05-25T00:03:10.408Z,6.70
2023-05-25T00:04:17.294Z,6.43
2023-05-25T00:05:21.245Z,6.62
2023-05-25T00:06:26.315Z,6.82
2023-05-25T00:07:29.198Z,6.15
2023-05-25T00:08:32.020Z,6.78
2023-05-25T00:09:35.832Z,7.20
2023-05-25T00:10:38.662Z,6.50
2023-05-25T00:11:41.563Z,7.40
2023-05-25T00:12:44.256Z,7.22
2023-05-25T00:13:47.032Z,6.65
2023-05-25T00:14:49.797Z,6.80
2023-05-25T00:15:52.754Z,7.00
2023-05-25T00:16:55.518Z,6.80
2023-05-25T00:17:58.392Z,7.15
2023-05-25T00:19:03.933Z,6.72
2023-05-25T00:20:09.232Z,6.80
2023-05-25T00:21:12.152Z,6.72
2023-05-25T00:22:14.878Z,6.57
2023-05-25T00:23:17.630Z,6.18
2023-05-25T00:24:20.570Z,6.95
2023-05-25T00:25:23.379Z,6.80
2023-05-25T00:26:26.338Z,6.47
2023-05-25T00:27:28.994Z,6.35
2023-05-25T00:28:31.793Z,6.45
2023-05-25T00:29:36.029Z,6.60
2023-05-25T00:30:39.509Z,6.18
2023-05-25T00:31:42.347Z,6.57
2023-05-25T00:32:45.258Z,6.30
2023-05-25T00:33:48.288Z,6.45
2023-05-25T00:34:51.045Z,6.28
2023-05-25T00:35:54.392Z,6.78
2023-05-25T00:36:57.830Z,6.37
2023-05-25T00:38:00.663Z,5.87
2023-05-25T00:39:03.357Z,6.72
2023-05-25T00:40:11.568Z,6.03
2023-05-25T00:41:17.827Z,6.45
2023-05-25T00:42:21.507Z,6.10
2023-05-25T00:43:24.253Z,6.25
2023-05-25T00:44:28.161Z,6.62
2023-05-25T00:45:30.852Z,6.40
2023-05-25T00:46:35.042Z,6.25
2023-05-25T00:47:39.853Z,6.40
2023-05-25T00:48:44.032Z,6.10
2023-05-25T00:49:46.819Z,6.68
2023-05-25T00:50:54.410Z,6.62
2023-05-25T00:51:58.395Z,6.28
2023-05-25T00:53:01.431Z,6.65
2023-05-25T00:54:04.236Z,6.47
2023-05-25T00:55:09.321Z,5.95
2023-05-25T00:56:29.444Z,6.62
2023-05-25T00:57:34.459Z,6.28
2023-05-25T00:58:40.240Z,5.85
2023-05-25T00:59:52.102Z,6.15
2023-05-25T01:00:57.983Z,6.30
2023-05-25T01:02:04.972Z,6.43
2023-05-25T01:03:18.036Z,5.68
2023-05-25T01:04:21.941Z,6.35
2023-05-25T01:05:29.567Z,6.18
2023-05-25T01:06:34.271Z,6.62
2023-05-25T01:07:37.949Z,6.22
2023-05-25T01:08:44.692Z,6.30
2023-05-25T01:09:48.865Z,6.85
2023-05-25T01:10:54.019Z,5.97
2023-05-25T01:11:57.673Z,6.10
2023-05-25T01:13:03.001Z,6.47
2023-05-25T01:14:06.690Z,6.62
2023-05-25T01:15:10.245Z,6.28
2023-05-25T01:16:14.141Z,6.35
2023-05-25T01:17:18.293Z,6.15
2023-05-25T01:18:21.138Z,5.80
2023-05-25T01:19:23.905Z,5.87
2023-05-25T01:20:32.896Z,6.10
2023-05-25T01:21:46.254Z,5.82
2023-05-25T01:22:57.636Z,5.95
2023-05-25T01:24:22.778Z,6.85
2023-05-25T01:25:34.879Z,5.78
2023-05-25T01:26:45.214Z,5.95
2023-05-25T01:27:55.080Z,6.10
2023-05-25T01:28:59.795Z,5.87
2023-05-25T01:30:03.690Z,6.07
2023-05-25T01:31:08.909Z,5.53
2023-05-25T01:32:14.435Z,5.72
2023-05-25T01:33:19.301Z,5.97
2023-05-25T01:34:22.941Z,5.22
2023-05-25T01:35:26.608Z,5.68
2023-05-25T01:36:29.564Z,5.75
2023-05-25T01:37:33.331Z,6.22
2023-05-25T01:38:38.254Z,5.60
2023-05-25T01:39:41.561Z,5.93
2023-05-25T01:40:44.663Z,5.95
2023-05-25T01:41:47.511Z,5.55
2023-05-25T01:42:50.618Z,5.62
2023-05-25T01:43:53.841Z,5.90
2023-05-25T01:44:56.911Z,6.30
2023-05-25T01:46:10.071Z,5.87
2023-05-25T01:47:21.419Z,6.50
2023-05-25T01:49:03.001Z,6.60
2023-05-25T01:50:17.485Z,5.57
2023-05-25T01:51:38.832Z,5.75
2023-05-25T01:52:56.375Z,6.18
2023-05-25T01:54:03.726Z,5.97
2023-05-25T01:55:12.096Z,6.75
2023-05-25T01:56:15.735Z,5.68
2023-05-25T01:57:21.161Z,5.47
2023-05-25T01:58:26.083Z,5.97
2023-05-25T01:59:30.256Z,5.90
2023-05-25T02:00:34.685Z,5.82
2023-05-25T02:01:37.809Z,5.95
2023-05-25T02:02:46.165Z,6.03
2023-05-25T02:03:49.593Z,5.80
2023-05-25T02:04:57.757Z,5.85
2023-05-25T02:06:00.597Z,5.72
2023-05-25T02:07:06.610Z,6.43
2023-05-25T02:08:09.368Z,5.97
2023-05-25T02:09:12.389Z,6.03
2023-05-25T02:10:15.208Z,5.75
2023-05-25T02:11:18.015Z,5.85
2023-05-25T02:12:20.784Z,6.03
2023-05-25T02:13:23.626Z,6.97
2023-05-25T02:14:26.769Z,5.75
2023-05-25T02:15:33.874Z,6.32
2023-05-25T02:16:36.729Z,6.20
2023-05-25T02:17:39.709Z,6.20
2023-05-25T02:18:44.922Z,6.22
2023-05-25T02:19:49.599Z,6.15
2023-05-25T02:20:52.291Z,6.62
2023-05-25T02:21:55.238Z,7.00
2023-05-25T02:22:58.185Z,7.05
2023-05-25T02:24:01.161Z,6.30
2023-05-25T02:25:04.499Z,6.68
2023-05-25T02:26:07.366Z,5.90
2023-05-25T02:27:13.030Z,6.10
2023-05-25T02:28:15.862Z,6.75
2023-05-25T02:29:18.626Z,6.18
2023-05-25T02:30:21.631Z,6.80
2023-05-25T02:31:24.466Z,6.68
2023-05-25T02:32:29.828Z,6.40
2023-05-25T02:33:32.781Z,6.70
2023-05-25T02:34:35.883Z,7.30
2023-05-25T02:35:38.693Z,6.45
2023-05-25T02:36:43.597Z,6.78
2023-05-25T02:37:47.341Z,6.80
2023-05-25T02:38:52.397Z,5.82
2023-05-25T02:39:55.292Z,6.50
2023-05-25T02:40:58.101Z,6.40
2023-05-25T02:42:01.579Z,6.30
2023-05-25T02:43:04.418Z,6.60
2023-05-25T02:44:07.376Z,6.78
2023-05-25T02:45:11.017Z,6.15
2023-05-25T02:46:14.022Z,6.28
2023-05-25T02:47:18.361Z,6.32
2023-05-25T02:48:22.282Z,5.70
2023-05-25T02:49:24.971Z,6.32
2023-05-25T02:50:27.739Z,5.65
2023-05-25T02:51:30.928Z,6.60
2023-05-25T02:52:33.972Z,6.30
2023-05-25T02:53:36.907Z,6.32
2023-05-25T02:54:40.046Z,5.90
2023-05-25T02:55:43.873Z,6.47
2023-05-25T02:56:46.770Z,6.65
2023-05-25T02:57:49.549Z,6.45
2023-05-25T02:58:53.213Z,5.87
2023-05-25T02:59:56.067Z,6.20
2023-05-25T03:01:01.692Z,6.25
2023-05-25T03:02:04.717Z,6.40
2023-05-25T03:03:08.231Z,6.50
2023-05-25T03:04:11.215Z,5.93
2023-05-25T03:05:14.095Z,6.87
2023-05-25T03:06:16.900Z,6.18
2023-05-25T03:07:21.135Z,6.50
2023-05-25T03:08:24.069Z,6.43
2023-05-25T03:09:26.783Z,6.95
2023-05-25T03:10:29.605Z,6.45
2023-05-25T03:11:32.428Z,6.78
2023-05-25T03:12:35.240Z,6.68
2023-05-25T03:13:38.020Z,6.65
2023-05-25T03:14:40.749Z,6.50
2023-05-25T03:15:43.883Z,6.72
2023-05-25T03:16:47.030Z,5.62
2023-05-25T03:17:50.891Z,6.65
2023-05-25T03:18:54.076Z,6.32
2023-05-25T03:19:56.922Z,6.65
2023-05-25T03:20:59.671Z,6.25
2023-05-25T03:22:04.095Z,6.62
2023-05-25T03:23:06.764Z,6.95
2023-05-25T03:24:09.581Z,6.93
2023-05-25T03:25:13.349Z,6.07
2023-05-25T03:26:16.227Z,6.35
2023-05-25T03:27:18.923Z,6.90
2023-05-25T03:28:21.691Z,6.32
2023-05-25T03:29:24.603Z,5.87
2023-05-25T03:30:27.364Z,5.95
2023-05-25T03:31:30.195Z,5.75
2023-05-25T03:32:33.179Z,6.05
2023-05-25T03:33:36.162Z,6.45
2023-05-25T03:34:40.545Z,6.37
2023-05-25T03:35:43.437Z,5.78
2023-05-25T03:36:47.708Z,6.50
2023-05-25T03:37:50.624Z,6.07
2023-05-25T03:38:54.699Z,6.12
2023-05-25T03:39:57.508Z,6.35
2023-05-25T03:41:00.137Z,5.93
2023-05-25T03:42:03.639Z,6.32
2023-05-25T03:43:06.422Z,6.15
2023-05-25T03:44:11.038Z,5.75
2023-05-25T03:45:13.760Z,6.07
2023-05-25T03:46:16.750Z,5.80
2023-05-25T03:47:19.577Z,6.05
2023-05-25T03:48:22.346Z,5.90
2023-05-25T03:49:24.972Z,6.12
2023-05-25T03:50:27.612Z,5.55
2023-05-25T03:51:30.302Z,6.00
2023-05-25T03:52:33.554Z,5.40
2023-05-25T03:53:36.437Z,6.12
2023-05-25T03:54:39.260Z,5.78
2023-05-25T03:55:42.224Z,5.62
2023-05-25T03:56:45.050Z,5.18
2023-05-25T03:57:47.825Z,5.70
2023-05-25T03:58:50.547Z,5.15
2023-05-25T03:59:53.262Z,5.85
2023-05-25T04:00:56.435Z,5.65
2023-05-25T04:01:59.164Z,5.50
2023-05-25T04:03:02.024Z,5.82
2023-05-25T04:04:05.668Z,5.25
2023-05-25T04:05:08.870Z,5.90
2023-05-25T04:06:11.826Z,5.53
2023-05-25T04:07:14.483Z,5.50
2023-05-25T04:08:20.388Z,5.57
2023-05-25T04:09:23.276Z,5.45
2023-05-25T04:10:25.981Z,5.62
2023-05-25T04:11:29.293Z,5.53
2023-05-25T04:12:32.575Z,5.55
2023-05-25T04:13:36.593Z,5.43
2023-05-25T04:14:39.459Z,6.15
2023-05-25T04:15:42.292Z,5.85
2023-05-25T04:16:46.137Z,6.22
2023-05-25T04:17:49.178Z,5.87
2023-05-25T04:18:52.115Z,5.75
2023-05-25T04:19:56.458Z,6.72
2023-05-25T04:20:59.522Z,6.10
2023-05-25T04:22:02.391Z,6.32
2023-05-25T04:23:04.977Z,6.18
2023-05-25T04:24:07.960Z,6.03
2023-05-25T04:25:10.980Z,6.57
2023-05-25T04:26:16.052Z,6.53
2023-05-25T04:27:20.734Z,7.35
2023-05-25T04:28:23.578Z,6.72
2023-05-25T04:29:27.200Z,6.55
2023-05-25T04:30:31.681Z,6.85
2023-05-25T04:31:34.419Z,6.20
2023-05-25T04:32:37.536Z,6.45
2023-05-25T04:33:40.866Z,6.90
2023-05-25T04:34:45.070Z,6.35
2023-05-25T04:35:49.310Z,6.72
2023-05-25T04:36:51.975Z,6.93
2023-05-25T04:37:54.775Z,6.20
2023-05-25T04:38:57.562Z,6.70
2023-05-25T04:40:00.367Z,6.15
2023-05-25T04:41:04.058Z,7.05
2023-05-25T04:42:07.998Z,6.85
2023-05-25T04:43:11.553Z,7.03
2023-05-25T04:44:14.807Z,6.30
2023-05-25T04:45:17.741Z,6.82
2023-05-25T04:46:20.995Z,6.87
2023-05-25T04:47:25.289Z,7.53
2023-05-25T04:48:34.396Z,6.50
2023-05-25T04:49:37.167Z,7.28
2023-05-25T04:50:40.692Z,7.03
2023-05-25T04:51:43.380Z,6.93
2023-05-25T04:52:46.423Z,6.32
2023-05-25T04:53:51.394Z,7.20
2023-05-25T04:54:54.430Z,6.50
2023-05-25T04:55:57.916Z,7.32
2023-05-25T04:57:01.857Z,6.85
2023-05-25T04:58:05.946Z,6.50
2023-05-25T04:59:08.781Z,7.00
2023-05-25T05:00:12.780Z,6.70
2023-05-25T05:01:15.787Z,6.37
2023-05-25T05:02:18.610Z,6.82
2023-05-25T05:03:21.568Z,6.90
2023-05-25T05:04:24.361Z,6.25
2023-05-25T05:05:27.312Z,6.95
2023-05-25T05:06:30.256Z,7.30
2023-05-25T05:07:33.381Z,7.32
2023-05-25T05:08:36.124Z,6.80
2023-05-25T05:09:38.936Z,6.60
2023-05-25T05:10:41.824Z,7.03
2023-05-25T05:11:44.783Z,6.37
2023-05-25T05:12:47.481Z,6.78
2023-05-25T05:13:50.420Z,6.32
2023-05-25T05:14:53.455Z,7.32
2023-05-25T05:15:56.303Z,7.32
2023-05-25T05:16:59.106Z,6.50
2023-05-25T05:18:01.853Z,7.25
2023-05-25T05:19:05.220Z,7.05
2023-05-25T05:20:08.892Z,7.07
2023-05-25T05:21:11.978Z,6.80
2023-05-25T05:22:16.233Z,7.00
2023-05-25T05:23:18.946Z,7.12
2023-05-25T05:24:21.899Z,7.62
2023-05-25T05:25:24.644Z,6.78
2023-05-25T05:26:27.954Z,7.20
2023-05-25T05:27:30.995Z,6.87
2023-05-25T05:28:33.651Z,6.93
2023-05-25T05:29:37.740Z,6.82
2023-05-25T05:30:41.214Z,6.60
2023-05-25T05:31:44.052Z,7.03
2023-05-25T05:32:47.015Z,6.47
2023-05-25T05:33:50.318Z,7.22
2023-05-25T05:34:53.118Z,7.40
2023-05-25T05:35:55.901Z,6.35
2023-05-25T05:37:00.257Z,6.07
2023-05-25T05:38:03.155Z,6.40
2023-05-25T05:39:05.930Z,7.05
2023-05-25T05:40:09.577Z,6.37
2023-05-25T05:41:14.563Z,6.85
2023-05-25T05:42:17.327Z,6.37
2023-05-25T05:43:20.056Z,6.85
2023-05-25T05:44:24.757Z,6.60
2023-05-25T05:45:28.941Z,6.40
2023-05-25T05:46:31.691Z,7.03
2023-05-25T05:47:34.591Z,6.22
2023-05-25T05:48:37.774Z,6.62
2023-05-25T05:49:40.964Z,6.97
2023-05-25T05:50:43.822Z,7.05
2023-05-25T05:51:46.662Z,6.90
2023-05-25T05:52:49.426Z,7.22
2023-05-25T05:53:52.269Z,6.50
2023-05-25T05:54:55.132Z,7.03
2023-05-25T05:55:59.850Z,7.05
2023-05-25T05:57:02.704Z,6.50
2023-05-25T05:58:05.475Z,6.72
2023-05-25T05:59:08.650Z,6.90
2023-05-25T06:00:12.192Z,6.90
2023-05-25T06:01:15.112Z,6.55
2023-05-25T06:02:18.086Z,6.95
2023-05-25T06:03:21.744Z,6.55
2023-05-25T06:04:29.133Z,6.95
2023-05-25T06:05:32.154Z,7.00
2023-05-25T06:06:35.335Z,7.30
2023-05-25T06:07:38.681Z,6.75
2023-05-25T06:08:41.596Z,6.70
2023-05-25T06:09:44.451Z,6.40
2023-05-25T06:10:47.331Z,7.10
2023-05-25T06:11:50.250Z,6.65
2023-05-25T06:12:53.085Z,6.57
2023-05-25T06:13:55.871Z,6.57
2023-05-25T06:14:58.520Z,7.32
2023-05-25T06:16:01.347Z,6.93
2023-05-25T06:17:04.332Z,7.20
2023-05-25T06:18:07.360Z,7.05
2023-05-25T06:19:10.217Z,7.05
2023-05-25T06:20:15.262Z,7.30
2023-05-25T06:21:18.168Z,7.03
2023-05-25T06:22:22.390Z,6.62
2023-05-25T06:23:25.209Z,6.90
2023-05-25T06:24:27.906Z,6.65
2023-05-25T06:25:30.606Z,6.62
2023-05-25T06:26:33.557Z,7.87
2023-05-25T06:27:36.867Z,7.40
2023-05-25T06:28:39.675Z,7.82
2023-05-25T06:29:42.462Z,7.87
2023-05-25T06:30:45.410Z,7.47
2023-05-25T06:31:48.275Z,8.07
2023-05-25T06:32:51.146Z,8.63
2023-05-25T06:33:53.909Z,7.30
2023-05-25T06:34:56.786Z,7.57
2023-05-25T06:36:00.819Z,7.57
2023-05-25T06:37:03.682Z,7.10
2023-05-25T06:38:06.515Z,7.60
2023-05-25T06:39:09.351Z,7.93
2023-05-25T06:40:12.366Z,7.18
2023-05-25T06:41:15.537Z,8.23
2023-05-25T06:42:18.451Z,7.93
2023-05-25T06:43:22.210Z,8.00
2023-05-25T06:44:24.996Z,7.80
2023-05-25T06:45:28.406Z,8.02
2023-05-25T06:46:32.030Z,8.43
2023-05-25T06:47:34.819Z,7.87
2023-05-25T06:48:39.533Z,7.78
2023-05-25T06:49:42.281Z,8.73
2023-05-25T06:50:46.361Z,7.97
2023-05-25T06:51:51.290Z,8.57
2023-05-25T06:52:53.936Z,8.68
2023-05-25T06:53:57.259Z,7.95
2023-05-25T06:55:00.035Z,7.82
2023-05-25T06:56:03.030Z,9.02
2023-05-25T06:57:06.769Z,7.78
2023-05-25T06:58:09.617Z,8.52
2023-05-25T06:59:12.674Z,8.80
2023-05-25T07:00:16.722Z,8.55
2023-05-25T07:01:19.433Z,8.50
2023-05-25T07:02:22.457Z,9.10
2023-05-25T07:03:25.186Z,9.15
2023-05-25T07:04:28.791Z,8.30
2023-05-25T07:05:31.588Z,8.38
2023-05-25T07:06:34.330Z,8.15
2023-05-25T07:07:37.149Z,7.47
2023-05-25T07:08:39.852Z,7.53
2023-05-25T07:09:42.480Z,8.02
2023-05-25T07:10:45.495Z,8.68
2023-05-25T07:11:48.716Z,7.70
2023-05-25T07:12:51.432Z,7.82
2023-05-25T07:13:54.130Z,8.80
2023-05-25T07:14:58.137Z,8.30
2023-05-25T07:16:00.868Z,8.82
2023-05-25T07:17:03.793Z,8.70
2023-05-25T07:18:06.655Z,8.85
2023-05-25T07:19:09.654Z,8.63
2023-05-25T07:20:13.823Z,8.35
2023-05-25T07:21:16.537Z,8.70
2023-05-25T07:22:19.785Z,8.10
2023-05-25T07:23:22.795Z,7.78
2023-05-25T07:24:25.655Z,8.85
2023-05-25T07:25:28.375Z,7.65
2023-05-25T07:26:32.352Z,8.55
2023-05-25T07:27:36.247Z,7.87
2023-05-25T07:28:38.978Z,8.10
2023-05-25T07:29:41.659Z,7.95
2023-05-25T07:30:44.436Z,7.07
2023-05-25T07:31:47.278Z,7.53
2023-05-25T07:32:50.459Z,7.75
2023-05-25T07:33:55.625Z,7.72
2023-05-25T07:34:58.468Z,7.05
2023-05-25T07:36:01.475Z,7.65
2023-05-25T07:37:04.287Z,8.18
2023-05-25T07:38:07.152Z,7.62
2023-05-25T07:39:11.543Z,7.30
2023-05-25T07:40:14.314Z,7.07
2023-05-25T07:41:17.285Z,7.45
2023-05-25T07:42:21.969Z,7.35
2023-05-25T07:43:25.082Z,7.70
2023-05-25T07:44:29.370Z,7.70
2023-05-25T07:45:32.474Z,7.68
2023-05-25T07:46:35.317Z,8.05
2023-05-25T07:47:38.179Z,7.70
2023-05-25T07:48:41.130Z,8.15
2023-05-25T07:49:44.104Z,8.10
2023-05-25T07:50:47.060Z,8.40
2023-05-25T07:51:49.799Z,7.75
2023-05-25T07:52:52.804Z,8.23
2023-05-25T07:53:56.771Z,7.93
2023-05-25T07:54:59.573Z,7.60
2023-05-25T07:56:02.633Z,7.87
2023-05-25T07:57:07.146Z,7.93
2023-05-25T07:58:09.916Z,7.90
2023-05-25T07:59:12.672Z,7.72
2023-05-25T08:00:15.745Z,7.30
2023-05-25T08:01:19.055Z,8.00
2023-05-25T08:02:21.952Z,7.90
2023-05-25T08:03:39.569Z,8.18
2023-05-25T08:04:47.617Z,7.93
2023-05-25T08:05:51.180Z,7.47
2023-05-25T08:06:53.905Z,7.95
2023-05-25T08:07:56.625Z,7.32
2023-05-25T08:08:59.448Z,7.65
2023-05-25T08:10:03.504Z,6.87
2023-05-25T08:11:06.210Z,7.35
2023-05-25T08:12:30.764Z,7.00
2023-05-25T08:13:31.847Z,7.57
2023-05-25T08:14:34.549Z,7.70
2023-05-25T08:15:37.118Z,6.93
2023-05-25T08:16:40.016Z,7.15
2023-05-25T08:17:42.969Z,6.90
2023-05-25T08:18:47.173Z,7.95
2023-05-25T08:19:50.037Z,7.78
2023-05-25T08:20:52.834Z,8.13
2023-05-25T08:21:55.652Z,7.75
2023-05-25T08:22:59.449Z,7.68
2023-05-25T08:24:04.385Z,7.07
2023-05-25T08:25:08.392Z,7.37
2023-05-25T08:26:28.994Z,7.75
2023-05-25T08:27:35.941Z,7.62
2023-05-25T08:28:39.143Z,7.70
2023-05-25T08:29:42.069Z,8.27
2023-05-25T08:30:46.094Z,8.15
2023-05-25T08:31:49.950Z,7.62
2023-05-25T08:32:52.876Z,7.10
2023-05-25T08:33:55.717Z,7.12
2023-05-25T08:34:58.487Z,7.80
2023-05-25T08:36:01.300Z,7.20
2023-05-25T08:37:04.211Z,7.18
2023-05-25T08:38:07.259Z,7.12
2023-05-25T08:39:10.874Z,7.35
2023-05-25T08:40:18.870Z,7.12
2023-05-25T08:41:22.087Z,6.87
2023-05-25T08:42:25.228Z,6.47
2023-05-25T08:43:28.207Z,7.00
2023-05-25T08:44:31.025Z,8.13
2023-05-25T08:45:36.256Z,7.65
2023-05-25T08:46:41.876Z,6.60
2023-05-25T08:47:45.150Z,7.10
2023-05-25T08:48:52.057Z,6.85
2023-05-25T08:49:56.361Z,7.05
2023-05-25T08:51:08.726Z,7.20
2023-05-25T08:52:21.413Z,6.80
2023-05-25T08:53:24.449Z,6.95
2023-05-25T08:54:34.401Z,6.80
2023-05-25T08:55:39.738Z,7.65
2023-05-25T08:56:54.939Z,6.30
2023-05-25T08:58:20.092Z,6.43
2023-05-25T08:59:34.482Z,7.53
2023-05-25T09:00:47.379Z,6.80
2023-05-25T09:01:56.872Z,7.18
2023-05-25T09:03:18.732Z,6.97
2023-05-25T09:05:26.610Z,7.50
2023-05-25T09:06:30.863Z,7.07
2023-05-25T09:07:34.382Z,7.40
2023-05-25T09:08:39.570Z,7.15
2023-05-25T09:09:42.867Z,6.57
2023-05-25T09:10:46.288Z,6.82
2023-05-25T09:11:49.109Z,6.87
2023-05-25T09:12:53.039Z,6.97
2023-05-25T09:13:56.743Z,7.32
2023-05-25T09:15:00.185Z,7.25
2023-05-25T09:16:03.162Z,7.00
2023-05-25T09:17:06.154Z,6.97
2023-05-25T09:18:10.337Z,7.50
2023-05-25T09:19:16.638Z,6.95
2023-05-25T09:20:20.024Z,7.28
2023-05-25T09:21:22.912Z,7.18
2023-05-25T09:22:25.760Z,6.57
2023-05-25T09:23:28.975Z,7.12
2023-05-25T09:24:32.291Z,6.75
2023-05-25T09:25:39.070Z,7.47
2023-05-25T09:26:46.383Z,6.87
2023-05-25T09:27:51.832Z,7.50
2023-05-25T09:28:54.632Z,7.65
2023-05-25T09:30:01.361Z,7.37
2023-05-25T09:31:04.217Z,7.62
2023-05-25T09:32:07.445Z,7.35
2023-05-25T09:33:12.073Z,7.05
2023-05-25T09:34:15.606Z,7.30
2023-05-25T09:35:18.482Z,7.45
2023-05-25T09:36:23.496Z,7.70
2023-05-25T09:37:27.254Z,6.93
2023-05-25T09:38:30.913Z,6.70
2023-05-25T09:39:33.802Z,7.50
2023-05-25T09:40:38.957Z,6.90
2023-05-25T09:41:41.949Z,7.50
2023-05-25T09:42:44.703Z,6.87
2023-05-25T09:44:52.118Z,7.00
2023-05-25T09:45:55.281Z,6.55
2023-05-25T09:46:58.155Z,6.75
2023-05-25T09:48:01.792Z,6.12
2023-05-25T09:49:08.069Z,6.32
2023-05-25T09:50:12.289Z,6.15
2023-05-25T09:51:15.229Z,6.50
2023-05-25T09:52:18.189Z,6.45
2023-05-25T09:53:21.380Z,5.72
2023-05-25T09:54:24.326Z,6.18
2023-05-25T09:55:40.447Z,6.18
2023-05-25T09:56:53.698Z,5.90
2023-05-25T09:57:57.263Z,5.90
2023-05-25T09:59:00.222Z,6.93
2023-05-25T10:00:05.682Z,6.18
2023-05-25T10:01:08.988Z,5.70
2023-05-25T10:02:13.041Z,6.07
2023-05-25T10:03:16.106Z,6.00
2023-05-25T10:04:19.024Z,5.35
2023-05-25T10:05:22.303Z,5.25
2023-05-25T10:06:27.103Z,5.32
2023-05-25T10:07:31.861Z,5.32
2023-05-25T10:08:35.611Z,5.90
2023-05-25T10:09:41.886Z,5.90
2023-05-25T10:10:46.450Z,5.32
2023-05-25T10:11:53.045Z,5.28
2023-05-25T10:12:56.488Z,5.25
2023-05-25T10:14:04.048Z,5.68
2023-05-25T10:15:09.685Z,6.15
2023-05-25T10:17:25.641Z,6.45
2023-05-25T10:18:33.143Z,5.90
2023-05-25T10:20:05.540Z,5.75
2023-05-25T10:21:10.254Z,5.40
2023-05-25T10:22:22.231Z,5.35
2023-05-25T10:23:27.363Z,5.85
2023-05-25T10:24:46.160Z,5.95
2023-05-25T10:25:54.313Z,5.55
2023-05-25T10:27:03.278Z,5.30
2023-05-25T10:28:28.560Z,5.75
2023-05-25T10:29:33.970Z,5.30
2023-05-25T10:30:37.344Z,5.12
2023-05-25T10:31:41.098Z,5.53
2023-05-25T10:32:45.707Z,5.62
2023-05-25T10:33:52.038Z,5.62
2023-05-25T10:34:58.694Z,5.70
2023-05-25T10:36:10.898Z,5.82
2023-05-25T10:37:15.539Z,5.53
2023-05-25T10:38:19.942Z,5.47
2023-05-25T10:39:25.090Z,5.82
2023-05-25T10:40:28.152Z,5.68
2023-05-25T10:41:30.976Z,5.62
2023-05-25T10:42:37.260Z,6.03
2023-05-25T10:43:41.527Z,5.85
2023-05-25T10:44:45.294Z,6.32
2023-05-25T10:45:48.991Z,5.70
2023-05-25T10:46:52.499Z,5.30
2023-05-25T10:47:55.395Z,6.07
2023-05-25T10:49:02.627Z,5.75
2023-05-25T10:50:06.192Z,5.18
2023-05-25T10:51:11.803Z,5.32
2023-05-25T10:52:20.112Z,5.18
2023-05-25T10:53:22.893Z,5.35
2023-05-25T10:54:34.077Z,5.18
2023-05-25T10:55:44.983Z,4.82
2023-05-25T10:57:11.357Z,5.22
2023-05-25T10:58:16.526Z,4.80
2023-05-25T10:59:27.644Z,4.22
2023-05-25T11:00:31.913Z,4.22
2023-05-25T11:01:51.767Z,4.45
2023-05-25T11:02:56.109Z,4.50
2023-05-25T11:04:11.730Z,4.78
2023-05-25T11:05:26.913Z,4.60
2023-05-25T11:06:43.354Z,4.82
2023-05-25T11:07:53.837Z,5.10
2023-05-25T11:09:04.255Z,4.70
2023-05-25T11:10:07.725Z,4.53
2023-05-25T11:11:10.697Z,5.12
2023-05-25T11:12:22.814Z,4.47
2023-05-25T11:13:31.494Z,4.60
2023-05-25T11:14:38.102Z,4.43
2023-05-25T11:15:40.954Z,4.82
2023-05-25T11:16:43.882Z,4.90
2023-05-25T11:18:00.435Z,5.07
2023-05-25T11:19:03.818Z,4.82
2023-05-25T11:20:07.637Z,4.35
2023-05-25T11:21:16.214Z,4.15
2023-05-25T11:22:21.371Z,4.28
2023-05-25T11:23:24.573Z,4.60
2023-05-25T11:24:31.375Z,4.93
2023-05-25T11:25:37.838Z,4.70
2023-05-25T11:26:54.998Z,4.47
2023-05-25T11:28:03.583Z,5.22
2023-05-25T11:29:16.217Z,4.90
2023-05-25T11:30:19.162Z,4.93
2023-05-25T11:31:31.988Z,5.00
2023-05-25T11:32:39.963Z,5.03
2023-05-25T11:33:45.227Z,5.07
2023-05-25T11:34:48.777Z,5.22
2023-05-25T11:35:52.394Z,4.93
2023-05-25T11:37:02.382Z,5.43
2023-05-25T11:38:08.712Z,5.12
2023-05-25T11:39:20.899Z,5.35
2023-05-25T11:40:25.437Z,5.40
2023-05-25T11:41:29.224Z,4.87
2023-05-25T11:42:32.860Z,5.43
2023-05-25T11:43:37.706Z,4.60
2023-05-25T11:44:41.588Z,5.78
2023-05-25T11:45:44.567Z,5.35
2023-05-25T11:46:48.975Z,5.50
2023-05-25T11:47:51.919Z,5.05
2023-05-25T11:48:56.093Z,5.60
2023-05-25T11:49:58.891Z,4.62
2023-05-25T11:51:06.646Z,5.00
2023-05-25T11:52:10.623Z,5.30
2023-05-25T11:53:13.866Z,5.00
2023-05-25T11:54:29.823Z,4.90
2023-05-25T11:55:32.711Z,5.20
2023-05-25T11:56:36.532Z,5.12
2023-05-25T11:57:40.689Z,4.80
2023-05-25T11:58:47.509Z,4.80
2023-05-25T11:59:54.557Z,4.78
2023-05-25T12:01:19.015Z,4.90
2023-05-25T12:02:25.236Z,4.57
2023-05-25T12:03:33.532Z,5.18
2023-05-25T12:04:37.164Z,4.95
2023-05-25T12:05:40.133Z,4.95
2023-05-25T12:06:42.883Z,5.15
2023-05-25T12:07:47.256Z,5.50
2023-05-25T12:08:50.135Z,5.43
2023-05-25T12:10:04.883Z,5.30
2023-05-25T12:11:07.688Z,4.55
2023-05-25T12:12:10.525Z,4.35
2023-05-25T12:13:14.908Z,4.82
2023-05-25T12:14:17.703Z,4.82
2023-05-25T12:15:25.052Z,4.65
2023-05-25T12:16:28.860Z,4.95
2023-05-25T12:17:33.946Z,4.85
2023-05-25T12:18:36.928Z,4.97
2023-05-25T12:19:39.846Z,5.60
2023-05-25T12:20:43.131Z,4.87
2023-05-25T12:21:46.638Z,5.82
2023-05-25T12:22:49.888Z,5.15
2023-05-25T12:23:54.718Z,5.00
2023-05-25T12:24:57.499Z,5.25
2023-05-25T12:26:14.595Z,4.37
2023-05-25T12:27:18.878Z,4.87
2023-05-25T12:28:21.687Z,4.43
2023-05-25T12:29:25.824Z,4.68
2023-05-25T12:30:28.731Z,4.87
2023-05-25T12:31:36.888Z,4.95
2023-05-25T12:33:02.240Z,4.85
2023-05-25T12:34:07.140Z,5.30
2023-05-25T12:35:10.331Z,5.00
2023-05-25T12:36:13.486Z,4.95
2023-05-25T12:37:22.961Z,5.03
2023-05-25T12:38:25.790Z,5.18
2023-05-25T12:39:31.564Z,5.05
2023-05-25T12:40:34.277Z,4.80
2023-05-25T12:41:44.418Z,5.10
2023-05-25T12:42:56.829Z,5.12
2023-05-25T12:43:59.771Z,4.93
2023-05-25T12:45:02.825Z,4.87
2023-05-25T12:46:05.825Z,5.07
2023-05-25T12:47:16.974Z,4.47
2023-05-25T12:48:27.004Z,4.43
2023-05-25T12:49:34.615Z,4.87
2023-05-25T12:50:37.578Z,4.82
2023-05-25T12:51:40.407Z,4.72
2023-05-25T12:52:45.105Z,4.80
2023-05-25T12:53:52.722Z,4.25
2023-05-25T12:54:55.606Z,4.95
2023-05-25T12:56:03.074Z,5.50
2023-05-25T12:57:07.010Z,5.20
2023-05-25T12:58:27.862Z,5.32
2023-05-25T12:59:31.609Z,5.10
2023-05-25T13:00:36.857Z,4.87
2023-05-25T13:01:40.957Z,4.65
2023-05-25T13:02:48.052Z,4.65
2023-05-25T13:03:53.846Z,4.80
2023-05-25T13:04:56.821Z,5.22
2023-05-25T13:06:03.683Z,5.22
2023-05-25T13:07:09.240Z,5.30
2023-05-25T13:08:12.593Z,4.37
2023-05-25T13:09:16.330Z,4.80
2023-05-25T13:10:19.306Z,5.37
2023-05-25T13:11:22.110Z,4.95
2023-05-25T13:12:24.997Z,4.80
2023-05-25T13:13:27.719Z,5.20
2023-05-25T13:14:30.973Z,5.05
2023-05-25T13:15:33.907Z,4.75
2023-05-25T13:16:36.948Z,4.80
2023-05-25T13:17:42.906Z,4.95
2023-05-25T13:18:45.761Z,5.00
2023-05-25T13:19:48.631Z,4.85
2023-05-25T13:20:55.203Z,4.60
2023-05-25T13:21:59.379Z,4.75
2023-05-25T13:23:03.401Z,4.57
2023-05-25T13:24:06.418Z,5.00
2023-05-25T13:25:10.176Z,4.78
2023-05-25T13:26:13.497Z,4.20
2023-05-25T13:27:16.294Z,4.57
2023-05-25T13:28:18.934Z,4.30
2023-05-25T13:29:21.738Z,4.50
2023-05-25T13:30:24.438Z,4.47
2023-05-25T13:31:27.316Z,4.78
2023-05-25T13:32:32.298Z,4.22
2023-05-25T13:33:35.066Z,4.85
2023-05-25T13:34:37.813Z,4.55
2023-05-25T13:35:58.570Z,4.82
2023-05-25T13:37:01.618Z,4.57
2023-05-25T13:38:04.562Z,4.78
2023-05-25T13:39:13.854Z,4.30
2023-05-25T13:40:16.973Z,4.85
2023-05-25T13:41:40.109Z,4.80
2023-05-25T13:43:03.347Z,4.78
2023-05-25T13:44:26.030Z,4.68
2023-05-25T13:45:48.865Z,4.40
2023-05-25T13:47:11.539Z,4.40
2023-05-25T13:48:34.379Z,4.15
2023-05-25T13:49:56.993Z,4.22
2023-05-25T13:51:19.905Z,4.18
2023-05-25T13:52:42.594Z,4.35
2023-05-25T13:54:05.432Z,4.70
2023-05-25T13:55:28.131Z,4.50
2023-05-25T13:56:39.035Z,4.03
2023-05-25T13:57:41.784Z,4.40
2023-05-25T13:58:44.564Z,4.20
2023-05-25T13:59:47.374Z,4.25
2023-05-25T14:00:50.238Z,4.15
2023-05-25T14:01:55.673Z,3.80
2023-05-25T14:02:59.147Z,3.65
2023-05-25T14:04:02.168Z,4.22
2023-05-25T14:05:05.645Z,4.22
2023-05-25T14:06:11.349Z,4.30
2023-05-25T14:07:14.371Z,4.57
2023-05-25T14:08:17.067Z,5.00
2023-05-25T14:09:19.831Z,4.35
2023-05-25T14:10:22.648Z,4.12
2023-05-25T14:11:28.540Z,4.70
2023-05-25T14:12:31.620Z,4.43
2023-05-25T14:13:36.388Z,4.03
2023-05-25T14:14:39.051Z,4.25
2023-05-25T14:15:42.144Z,4.60
2023-05-25T14:16:44.988Z,4.20
2023-05-25T14:17:47.935Z,4.18
2023-05-25T14:18:50.960Z,5.37
2023-05-25T14:19:53.753Z,4.28
2023-05-25T14:20:56.581Z,4.22
2023-05-25T14:22:12.366Z,4.30
2023-05-25T14:23:18.309Z,3.97
2023-05-25T14:24:21.502Z,4.20
2023-05-25T14:25:24.342Z,4.45
2023-05-25T14:26:27.281Z,4.43
2023-05-25T14:27:30.245Z,4.15
2023-05-25T14:28:33.005Z,4.62
2023-05-25T14:29:35.884Z,4.70